createdAt,value
2022-11-29T00:00:43.983Z,993.21
2022-11-29T00:01:44.002Z,993.22
2022-11-29T00:02:43.961Z,993.20
2022-11-29T00:03:43.807Z,993.21
2022-11-29T00:04:43.973Z,993.22
2022-11-29T00:05:43.666Z,993.20
2022-11-29T00:06:43.624Z,993.22
2022-11-29T00:07:45.075Z,993.23
2022-11-29T00:08:43.473Z,993.20
2022-11-29T00:09:43.403Z,993.15
2022-11-29T00:10:43.318Z,993.22
2022-11-29T00:11:43.304Z,993.16
2022-11-29T00:12:43.184Z,993.19
2022-11-29T00:13:43.175Z,993.24
2022-11-29T00:14:43.317Z,993.22
2022-11-29T00:15:43.027Z,993.14
2022-11-29T00:16:43.170Z,993.17
2022-11-29T00:17:42.871Z,993.17
2022-11-29T00:18:42.801Z,993.15
2022-11-29T00:19:42.782Z,993.13
2022-11-29T00:20:42.729Z,993.15
2022-11-29T00:21:42.669Z,993.15
2022-11-29T00:22:42.599Z,993.15
2022-11-29T00:23:42.509Z,993.17
2022-11-29T00:24:42.825Z,993.17
2022-11-29T00:25:42.397Z,993.17
2022-11-29T00:26:42.359Z,993.17
2022-11-29T00:27:42.256Z,993.15
2022-11-29T00:28:42.170Z,993.15
2022-11-29T00:29:42.127Z,993.14
2022-11-29T00:30:42.167Z,993.14
2022-11-29T00:31:42.015Z,993.14
2022-11-29T00:32:41.936Z,993.17
2022-11-29T00:33:41.865Z,993.15
2022-11-29T00:34:41.997Z,993.11
2022-11-29T00:35:41.741Z,993.16
2022-11-29T00:36:41.675Z,993.18
2022-11-29T00:37:41.664Z,993.16
2022-11-29T00:38:41.573Z,993.13
2022-11-29T00:39:41.515Z,993.13
2022-11-29T00:40:41.396Z,993.11
2022-11-29T00:41:41.358Z,993.14
2022-11-29T00:42:41.300Z,993.16
2022-11-29T00:43:41.215Z,993.13
2022-11-29T00:44:41.427Z,993.16
2022-11-29T00:45:41.173Z,993.13
2022-11-29T00:46:41.038Z,993.10
2022-11-29T00:47:40.973Z,993.08
2022-11-29T00:48:40.912Z,993.11
2022-11-29T00:50:02.076Z,993.11
2022-11-29T00:50:40.762Z,993.12
2022-11-29T00:51:40.714Z,993.09
2022-11-29T00:52:40.655Z,993.14
2022-11-29T00:53:40.614Z,993.11
2022-11-29T00:54:40.526Z,993.10
2022-11-29T00:55:40.503Z,993.09
2022-11-29T00:56:40.421Z,993.16
2022-11-29T00:57:40.314Z,993.13
2022-11-29T00:58:40.245Z,993.14
2022-11-29T00:59:40.266Z,993.15
2022-11-29T01:00:40.142Z,993.14
2022-11-29T01:01:40.149Z,993.19
2022-11-29T01:02:40.042Z,993.12
2022-11-29T01:03:39.918Z,993.13
2022-11-29T01:04:39.862Z,993.12
2022-11-29T01:05:39.820Z,993.15
2022-11-29T01:06:39.762Z,993.12
2022-11-29T01:09:58.124Z,993.11
2022-11-29T01:10:59.089Z,993.10
2022-11-29T01:11:59.023Z,993.12
2022-11-29T01:12:58.910Z,993.13
2022-11-29T01:13:58.894Z,993.18
2022-11-29T01:14:58.820Z,993.12
2022-11-29T01:15:58.741Z,993.14
2022-11-29T01:16:58.721Z,993.14
2022-11-29T01:17:58.596Z,993.17
2022-11-29T01:18:58.557Z,993.13
2022-11-29T01:19:58.458Z,993.16
2022-11-29T01:20:58.433Z,993.19
2022-11-29T01:21:58.364Z,993.18
2022-11-29T01:22:58.294Z,993.16
2022-11-29T01:23:58.202Z,993.20
2022-11-29T01:24:58.165Z,993.21
2022-11-29T01:25:58.073Z,993.20
2022-11-29T01:26:58.023Z,993.24
2022-11-29T01:27:57.975Z,993.24
2022-11-29T01:28:57.941Z,993.27
2022-11-29T01:29:57.879Z,993.23
2022-11-29T01:30:57.831Z,993.29
2022-11-29T01:31:57.716Z,993.29
2022-11-29T01:32:57.697Z,993.27
2022-11-29T01:33:57.588Z,993.28
2022-11-29T01:34:57.527Z,993.28
2022-11-29T01:35:57.494Z,993.27
2022-11-29T01:36:57.370Z,993.30
2022-11-29T01:37:57.310Z,993.32
2022-11-29T01:38:57.254Z,993.29
2022-11-29T01:39:57.200Z,993.32
2022-11-29T01:40:57.165Z,993.33
2022-11-29T01:41:57.072Z,993.34
2022-11-29T01:42:57.010Z,993.31
2022-11-29T01:43:56.947Z,993.34
2022-11-29T01:44:56.866Z,993.31
2022-11-29T01:45:56.837Z,993.32
2022-11-29T01:46:56.735Z,993.31
2022-11-29T01:47:56.719Z,993.31
2022-11-29T01:48:56.598Z,993.33
2022-11-29T01:49:56.566Z,993.33
2022-11-29T01:50:56.568Z,993.34
2022-11-29T01:51:56.432Z,993.33
2022-11-29T01:52:56.339Z,993.33
2022-11-29T01:53:56.304Z,993.33
2022-11-29T01:54:56.242Z,993.31
2022-11-29T01:55:56.207Z,993.33
2022-11-29T01:56:56.136Z,993.32
2022-11-29T01:57:56.051Z,993.32
2022-11-29T01:58:55.958Z,993.29
2022-11-29T01:59:55.918Z,993.33
2022-11-29T02:00:55.867Z,993.35
2022-11-29T02:01:55.821Z,993.33
2022-11-29T02:05:14.141Z,993.35
2022-11-29T02:06:15.102Z,993.36
2022-11-29T02:07:15.087Z,993.33
2022-11-29T02:08:14.994Z,993.40
2022-11-29T02:09:14.915Z,993.37
2022-11-29T02:10:15.160Z,993.36
2022-11-29T02:11:14.779Z,993.38
2022-11-29T02:12:14.740Z,993.39
2022-11-29T02:13:14.646Z,993.36
2022-11-29T02:14:14.593Z,993.38
2022-11-29T02:15:14.495Z,993.39
2022-11-29T02:16:14.516Z,993.39
2022-11-29T02:17:14.410Z,993.41
2022-11-29T02:18:14.340Z,993.40
2022-11-29T02:19:14.243Z,993.43
2022-11-29T02:20:14.180Z,993.43
2022-11-29T02:21:14.166Z,993.44
2022-11-29T02:24:32.545Z,993.42
2022-11-29T02:25:33.474Z,993.41
2022-11-29T02:26:33.400Z,993.42
2022-11-29T02:27:33.320Z,993.40
2022-11-29T02:28:33.233Z,993.42
2022-11-29T02:29:33.207Z,993.41
2022-11-29T02:30:33.223Z,993.42
2022-11-29T02:31:33.070Z,993.42
2022-11-29T02:32:33.002Z,993.43
2022-11-29T02:33:32.925Z,993.43
2022-11-29T02:34:32.873Z,993.43
2022-11-29T02:35:32.815Z,993.42
2022-11-29T02:36:32.775Z,993.37
2022-11-29T02:37:32.685Z,993.40
2022-11-29T02:38:32.617Z,993.41
2022-11-29T02:39:32.556Z,993.39
2022-11-29T02:40:32.476Z,993.42
2022-11-29T02:41:53.404Z,993.39
2022-11-29T02:42:32.359Z,993.43
2022-11-29T02:43:32.270Z,993.38
2022-11-29T02:44:32.233Z,993.37
2022-11-29T02:45:32.169Z,993.36
2022-11-29T02:46:32.164Z,993.37
2022-11-29T02:47:32.058Z,993.38
2022-11-29T02:48:31.997Z,993.40
2022-11-29T02:49:31.920Z,993.39
2022-11-29T02:50:31.781Z,993.38
2022-11-29T02:51:31.761Z,993.40
2022-11-29T02:52:31.720Z,993.43
2022-11-29T02:53:31.710Z,993.43
2022-11-29T02:54:31.602Z,993.40
2022-11-29T02:55:31.503Z,993.41
2022-11-29T02:56:31.464Z,993.40
2022-11-29T02:57:31.397Z,993.41
2022-11-29T02:58:31.339Z,993.42
2022-11-29T03:01:49.769Z,993.43
2022-11-29T03:02:50.775Z,993.46
2022-11-29T03:03:50.597Z,993.49
2022-11-29T03:04:50.558Z,993.47
2022-11-29T03:05:50.498Z,993.53
2022-11-29T03:06:50.443Z,993.50
2022-11-29T03:07:50.469Z,993.55
2022-11-29T03:08:50.311Z,993.57
2022-11-29T03:09:50.195Z,993.55
2022-11-29T03:10:50.109Z,993.55
2022-11-29T03:11:50.112Z,993.57
2022-11-29T03:12:50.033Z,993.57
2022-11-29T03:13:49.976Z,993.57
2022-11-29T03:14:49.918Z,993.56
2022-11-29T03:15:49.936Z,993.59
2022-11-29T03:16:49.761Z,993.61
2022-11-29T03:17:49.725Z,993.59
2022-11-29T03:18:49.680Z,993.60
2022-11-29T03:19:49.577Z,993.58
2022-11-29T03:20:49.509Z,993.62
2022-11-29T03:21:49.426Z,993.64
2022-11-29T03:22:49.403Z,993.66
2022-11-29T03:23:49.342Z,993.70
2022-11-29T03:24:49.250Z,993.69
2022-11-29T03:25:49.216Z,993.70
2022-11-29T03:26:49.108Z,993.71
2022-11-29T03:27:49.008Z,993.74
2022-11-29T03:28:48.998Z,993.73
2022-11-29T03:29:48.906Z,993.75
2022-11-29T03:30:48.875Z,993.74
2022-11-29T03:31:48.802Z,993.76
2022-11-29T03:32:48.737Z,993.75
2022-11-29T03:33:48.680Z,993.78
2022-11-29T03:34:51.808Z,993.78
2022-11-29T03:35:48.529Z,993.78
2022-11-29T03:36:48.480Z,993.75
2022-11-29T03:37:48.421Z,993.78
2022-11-29T03:38:48.357Z,993.82
2022-11-29T03:39:48.297Z,993.80
2022-11-29T03:40:48.259Z,993.80
2022-11-29T03:41:48.192Z,993.75
2022-11-29T03:42:48.118Z,993.79
2022-11-29T03:43:48.034Z,993.81
2022-11-29T03:44:47.952Z,993.78
2022-11-29T03:45:47.910Z,993.80
2022-11-29T03:46:47.846Z,993.84
2022-11-29T03:47:47.810Z,993.82
2022-11-29T03:48:47.735Z,993.85
2022-11-29T03:49:47.680Z,993.83
2022-11-29T03:50:47.595Z,993.84
2022-11-29T03:51:47.501Z,993.83
2022-11-29T03:52:47.443Z,993.84
2022-11-29T03:53:47.430Z,993.81
2022-11-29T03:55:08.347Z,993.84
2022-11-29T03:55:47.244Z,993.80
2022-11-29T03:56:47.208Z,993.77
2022-11-29T03:57:47.121Z,993.81
2022-11-29T03:58:47.081Z,993.79
2022-11-29T03:59:47.044Z,993.78
2022-11-29T04:00:46.955Z,993.83
2022-11-29T04:01:46.923Z,993.80
2022-11-29T04:02:46.896Z,993.81
2022-11-29T04:03:46.759Z,993.79
2022-11-29T04:04:46.929Z,993.85
2022-11-29T04:05:46.630Z,993.84
2022-11-29T04:06:46.557Z,993.80
2022-11-29T04:07:46.567Z,993.81
2022-11-29T04:08:46.430Z,993.86
2022-11-29T04:09:46.415Z,993.81
2022-11-29T04:10:46.314Z,993.84
2022-11-29T04:11:46.246Z,993.84
2022-11-29T04:13:07.175Z,993.85
2022-11-29T04:13:46.123Z,993.89
2022-11-29T04:14:46.253Z,993.85
2022-11-29T04:15:46.001Z,993.89
2022-11-29T04:16:45.944Z,993.90
2022-11-29T04:17:45.837Z,993.89
2022-11-29T04:18:45.800Z,993.89
2022-11-29T04:19:45.771Z,993.92
2022-11-29T04:20:48.333Z,993.93
2022-11-29T04:21:45.585Z,993.90
2022-11-29T04:22:45.519Z,993.92
2022-11-29T04:23:45.485Z,993.93
2022-11-29T04:24:45.812Z,993.95
2022-11-29T04:25:45.361Z,993.98
2022-11-29T04:26:45.322Z,993.91
2022-11-29T04:27:45.238Z,994.02
2022-11-29T04:28:45.190Z,994.02
2022-11-29T04:29:45.114Z,993.98
2022-11-29T04:30:45.088Z,994.03
2022-11-29T04:31:44.994Z,993.98
2022-11-29T04:32:44.937Z,994.04
2022-11-29T04:33:44.872Z,994.01
2022-11-29T04:34:45.151Z,994.00
2022-11-29T04:35:44.724Z,994.01
2022-11-29T04:36:44.668Z,994.01
2022-11-29T04:37:44.593Z,994.03
2022-11-29T04:38:44.531Z,994.06
2022-11-29T04:39:44.460Z,994.07
2022-11-29T04:40:44.393Z,994.02
2022-11-29T04:41:44.333Z,994.06
2022-11-29T04:42:44.265Z,994.16
2022-11-29T04:43:44.207Z,994.13
2022-11-29T04:44:44.521Z,994.11
2022-11-29T04:45:44.076Z,994.06
2022-11-29T04:46:44.010Z,994.14
2022-11-29T04:47:43.923Z,994.11
2022-11-29T04:51:02.323Z,994.08
2022-11-29T04:52:03.268Z,994.11
2022-11-29T04:53:03.186Z,994.14
2022-11-29T04:54:03.149Z,994.16
2022-11-29T04:55:03.086Z,994.13
2022-11-29T04:56:03.296Z,994.18
2022-11-29T04:57:02.929Z,994.17
2022-11-29T04:58:02.838Z,994.21
2022-11-29T04:59:02.831Z,994.16
2022-11-29T05:00:02.735Z,994.20
2022-11-29T05:01:02.645Z,994.19
2022-11-29T05:02:02.693Z,994.21
2022-11-29T05:03:02.590Z,994.24
2022-11-29T05:04:02.508Z,994.25
2022-11-29T05:05:02.387Z,994.25
2022-11-29T05:06:02.322Z,994.30
2022-11-29T05:07:02.284Z,994.27
2022-11-29T05:09:41.199Z,994.31
2022-11-29T05:10:42.153Z,994.34
2022-11-29T05:11:42.052Z,994.33
2022-11-29T05:12:42.020Z,994.34
2022-11-29T05:13:41.925Z,994.33
2022-11-29T05:14:42.075Z,994.33
2022-11-29T05:15:41.879Z,994.33
2022-11-29T05:16:41.789Z,994.33
2022-11-29T05:17:41.723Z,994.35
2022-11-29T05:18:41.612Z,994.37
2022-11-29T05:19:41.551Z,994.35
2022-11-29T05:20:41.549Z,994.35
2022-11-29T05:21:41.442Z,994.34
2022-11-29T05:22:41.357Z,994.37
2022-11-29T05:23:41.325Z,994.40
2022-11-29T05:24:41.275Z,994.40
2022-11-29T05:25:41.192Z,994.45
2022-11-29T05:27:02.107Z,994.46
2022-11-29T05:27:41.060Z,994.43
2022-11-29T05:28:41.038Z,994.41
2022-11-29T05:29:40.927Z,994.49
2022-11-29T05:30:40.861Z,994.44
2022-11-29T05:31:40.854Z,994.44
2022-11-29T05:32:40.736Z,994.48
2022-11-29T05:33:40.673Z,994.49
2022-11-29T05:34:40.584Z,994.48
2022-11-29T05:35:40.541Z,994.54
2022-11-29T05:36:40.512Z,994.51
2022-11-29T05:37:40.417Z,994.55
2022-11-29T05:38:40.369Z,994.52
2022-11-29T05:39:40.298Z,994.58
2022-11-29T05:40:40.253Z,994.58
2022-11-29T05:41:40.159Z,994.54
2022-11-29T05:42:40.099Z,994.56
2022-11-29T05:43:40.037Z,994.60
2022-11-29T05:44:40.005Z,994.61
2022-11-29T05:45:39.931Z,994.58
2022-11-29T05:46:39.980Z,994.58
2022-11-29T05:47:39.782Z,994.62
2022-11-29T05:48:39.740Z,994.64
2022-11-29T05:49:39.651Z,994.57
2022-11-29T05:50:39.602Z,994.65
2022-11-29T05:51:39.549Z,994.68
2022-11-29T05:52:39.480Z,994.66
2022-11-29T05:53:39.422Z,994.70
2022-11-29T05:54:39.306Z,994.68
2022-11-29T05:55:39.241Z,994.71
2022-11-29T05:56:39.250Z,994.70
2022-11-29T05:57:39.141Z,994.73
2022-11-29T05:58:39.049Z,994.68
2022-11-29T05:59:39.014Z,994.70
2022-11-29T06:00:38.929Z,994.74
2022-11-29T06:01:38.963Z,994.72
2022-11-29T06:02:38.834Z,994.75
2022-11-29T06:03:38.781Z,994.73
2022-11-29T06:04:38.670Z,994.73
2022-11-29T06:05:38.651Z,994.75
2022-11-29T06:06:38.563Z,994.78
2022-11-29T06:07:38.641Z,994.78
2022-11-29T06:08:38.467Z,994.82
2022-11-29T06:09:38.389Z,994.83
2022-11-29T06:10:38.278Z,994.83
2022-11-29T06:11:38.243Z,994.84
2022-11-29T06:12:38.161Z,994.83
2022-11-29T06:13:38.111Z,994.86
2022-11-29T06:14:38.030Z,994.87
2022-11-29T06:15:37.984Z,994.86
2022-11-29T06:16:37.988Z,994.95
2022-11-29T06:17:39.380Z,994.86
2022-11-29T06:18:37.826Z,994.89
2022-11-29T06:19:37.730Z,994.96
2022-11-29T06:20:58.697Z,994.92
2022-11-29T06:21:37.604Z,995.00
2022-11-29T06:22:37.549Z,995.00
2022-11-29T06:23:37.455Z,995.02
2022-11-29T06:24:37.409Z,995.01
2022-11-29T06:25:37.345Z,995.00
2022-11-29T06:26:37.267Z,995.02
2022-11-29T06:27:37.259Z,995.04
2022-11-29T06:28:37.150Z,995.04
2022-11-29T06:29:37.085Z,995.03
2022-11-29T06:30:37.012Z,995.05
2022-11-29T06:31:37.038Z,995.03
2022-11-29T06:32:36.844Z,995.06
2022-11-29T06:33:36.783Z,995.08
2022-11-29T06:34:36.690Z,995.07
2022-11-29T06:35:36.676Z,995.06
2022-11-29T06:36:36.591Z,995.07
2022-11-29T06:37:36.505Z,995.06
2022-11-29T06:38:57.439Z,995.07
2022-11-29T06:39:36.442Z,995.06
2022-11-29T06:40:36.355Z,995.07
2022-11-29T06:41:36.283Z,995.08
2022-11-29T06:42:36.234Z,995.13
2022-11-29T06:43:36.143Z,995.13
2022-11-29T06:44:36.122Z,995.12
2022-11-29T06:45:36.006Z,995.14
2022-11-29T06:46:36.015Z,995.17
2022-11-29T06:47:35.899Z,995.21
2022-11-29T06:48:35.846Z,995.22
2022-11-29T06:49:35.758Z,995.22
2022-11-29T06:50:35.739Z,995.19
2022-11-29T06:51:35.623Z,995.21
2022-11-29T06:52:35.550Z,995.25
2022-11-29T06:53:35.502Z,995.28
2022-11-29T06:54:35.458Z,995.21
2022-11-29T06:55:35.391Z,995.25
2022-11-29T06:58:14.175Z,995.26
2022-11-29T06:59:15.124Z,995.33
2022-11-29T07:00:15.031Z,995.33
2022-11-29T07:01:15.103Z,995.34
2022-11-29T07:02:15.007Z,995.35
2022-11-29T07:03:14.863Z,995.32
2022-11-29T07:04:14.806Z,995.34
2022-11-29T07:05:14.723Z,995.39
2022-11-29T07:06:14.779Z,995.38
2022-11-29T07:07:14.586Z,995.36
2022-11-29T07:08:14.591Z,995.40
2022-11-29T07:09:14.496Z,995.39
2022-11-29T07:10:15.087Z,995.37
2022-11-29T07:11:14.354Z,995.39
2022-11-29T07:12:14.264Z,995.38
2022-11-29T07:13:14.222Z,995.39
2022-11-29T07:14:14.187Z,995.42
2022-11-29T07:15:14.080Z,995.42
2022-11-29T07:16:14.085Z,995.45
2022-11-29T07:17:13.969Z,995.42
2022-11-29T07:18:13.878Z,995.45
2022-11-29T07:19:13.889Z,995.48
2022-11-29T07:20:13.805Z,995.51
2022-11-29T07:21:13.681Z,995.45
2022-11-29T07:22:13.619Z,995.52
2022-11-29T07:23:13.609Z,995.53
2022-11-29T07:24:13.566Z,995.50
2022-11-29T07:25:13.455Z,995.53
2022-11-29T07:26:13.440Z,995.46
2022-11-29T07:27:13.349Z,995.53
2022-11-29T07:28:13.260Z,995.48
2022-11-29T07:29:13.241Z,995.51
2022-11-29T07:30:13.133Z,995.50
2022-11-29T07:31:13.090Z,995.49
2022-11-29T07:34:31.419Z,995.55
2022-11-29T07:35:32.366Z,995.54
2022-11-29T07:36:32.273Z,995.51
2022-11-29T07:37:32.190Z,995.53
2022-11-29T07:38:32.179Z,995.51
2022-11-29T07:39:32.118Z,995.51
2022-11-29T07:40:37.322Z,995.54
2022-11-29T07:41:31.963Z,995.58
2022-11-29T07:42:31.917Z,995.58
2022-11-29T07:43:31.828Z,995.61
2022-11-29T07:44:31.746Z,995.59
2022-11-29T07:45:31.748Z,995.61
2022-11-29T07:46:31.743Z,995.60
2022-11-29T07:47:35.726Z,995.58
2022-11-29T07:48:31.505Z,995.62
2022-11-29T07:49:31.419Z,995.63
2022-11-29T07:50:31.383Z,995.58
2022-11-29T07:51:31.311Z,995.63
2022-11-29T07:52:31.225Z,995.60
2022-11-29T07:53:31.186Z,995.60
2022-11-29T07:54:31.146Z,995.68
2022-11-29T07:55:31.057Z,995.65
2022-11-29T07:56:30.994Z,995.67
2022-11-29T07:57:30.969Z,995.67
2022-11-29T07:58:30.888Z,995.69
2022-11-29T07:59:30.789Z,995.65
2022-11-29T08:00:30.771Z,995.67
2022-11-29T08:01:30.706Z,995.69
2022-11-29T08:02:30.671Z,995.73
2022-11-29T08:03:30.584Z,995.70
2022-11-29T08:04:30.497Z,995.75
2022-11-29T08:05:30.488Z,995.73
2022-11-29T08:06:30.392Z,995.74
2022-11-29T08:07:30.317Z,995.75
2022-11-29T08:08:30.261Z,995.77
2022-11-29T08:09:30.149Z,995.80
2022-11-29T08:10:30.122Z,995.78
2022-11-29T08:11:30.008Z,995.81
2022-11-29T08:12:29.956Z,995.78
2022-11-29T08:13:29.911Z,995.81
2022-11-29T08:14:29.841Z,995.83
2022-11-29T08:15:29.822Z,995.79
2022-11-29T08:16:29.759Z,995.80
2022-11-29T08:17:29.661Z,995.82
2022-11-29T08:18:29.619Z,995.81
2022-11-29T08:19:29.500Z,995.80
2022-11-29T08:20:29.434Z,995.85
2022-11-29T08:21:29.391Z,995.89
2022-11-29T08:22:29.333Z,995.87
2022-11-29T08:23:30.790Z,995.93
2022-11-29T08:24:29.205Z,995.95
2022-11-29T08:25:29.280Z,996.00
2022-11-29T08:26:31.644Z,995.92
2022-11-29T08:27:30.209Z,995.97
2022-11-29T08:28:29.018Z,996.00
2022-11-29T08:29:28.925Z,995.95
2022-11-29T08:30:28.889Z,995.93
2022-11-29T08:31:28.820Z,995.94
2022-11-29T08:32:28.715Z,995.96
2022-11-29T08:33:28.650Z,995.97
2022-11-29T08:34:28.568Z,995.94
2022-11-29T08:35:28.603Z,995.92
2022-11-29T08:36:28.556Z,995.95
2022-11-29T08:37:28.344Z,995.94
2022-11-29T08:38:28.301Z,995.98
2022-11-29T08:39:28.480Z,996.01
2022-11-29T08:40:28.183Z,995.99
2022-11-29T08:41:28.147Z,995.94
2022-11-29T08:42:28.061Z,995.97
2022-11-29T08:43:28.005Z,996.00
2022-11-29T08:44:27.931Z,996.05
2022-11-29T08:45:30.336Z,996.01
2022-11-29T08:46:27.844Z,996.04
2022-11-29T08:47:27.777Z,996.07
2022-11-29T08:48:27.693Z,996.04
2022-11-29T08:49:27.641Z,996.06
2022-11-29T08:50:27.542Z,996.08
2022-11-29T08:51:27.497Z,996.09
2022-11-29T08:52:27.469Z,996.10
2022-11-29T08:53:27.498Z,996.08
2022-11-29T08:54:27.305Z,996.10
2022-11-29T08:55:27.233Z,996.13
2022-11-29T08:57:42.453Z,996.15
2022-11-29T08:58:27.049Z,996.13
2022-11-29T08:59:26.976Z,996.14
2022-11-29T09:00:27.027Z,996.14
2022-11-29T09:01:26.924Z,996.15
2022-11-29T09:02:26.841Z,996.16
2022-11-29T09:03:47.702Z,996.16
2022-11-29T09:04:26.784Z,996.22
2022-11-29T09:05:26.707Z,996.19
2022-11-29T09:06:26.865Z,996.23
2022-11-29T09:07:26.595Z,996.20
2022-11-29T09:08:26.438Z,996.22
2022-11-29T09:09:26.648Z,996.25
2022-11-29T09:10:26.267Z,996.24
2022-11-29T09:11:26.428Z,996.22
2022-11-29T09:12:26.176Z,996.23
2022-11-29T09:13:26.072Z,996.26
2022-11-29T09:14:26.048Z,996.28
2022-11-29T09:15:25.964Z,996.27
2022-11-29T09:16:25.927Z,996.29
2022-11-29T09:17:25.820Z,996.27
2022-11-29T09:18:25.766Z,996.30
2022-11-29T09:19:25.665Z,996.29
2022-11-29T09:20:25.682Z,996.31
2022-11-29T09:23:43.957Z,996.33
2022-11-29T09:24:45.093Z,996.39
2022-11-29T09:25:44.823Z,996.39
2022-11-29T09:26:44.760Z,996.39
2022-11-29T09:27:44.672Z,996.42
2022-11-29T09:28:44.642Z,996.38
2022-11-29T09:29:44.591Z,996.41
2022-11-29T09:30:44.528Z,996.40
2022-11-29T09:31:44.701Z,996.42
2022-11-29T09:32:46.253Z,996.43
2022-11-29T09:33:44.334Z,996.46
2022-11-29T09:34:44.532Z,996.47
2022-11-29T09:35:44.187Z,996.49
2022-11-29T09:36:44.120Z,996.48
2022-11-29T09:37:44.057Z,996.52
2022-11-29T09:38:43.961Z,996.54
2022-11-29T09:39:43.957Z,996.55
2022-11-29T09:43:04.879Z,996.57
2022-11-29T09:44:03.698Z,996.58
2022-11-29T09:45:04.731Z,996.60
2022-11-29T09:46:04.389Z,996.64
2022-11-29T09:47:03.015Z,996.58
2022-11-29T09:48:03.089Z,996.64
2022-11-29T09:49:02.983Z,996.58
2022-11-29T09:50:02.887Z,996.60
2022-11-29T09:51:02.852Z,996.58
2022-11-29T09:52:02.682Z,996.59
2022-11-29T09:53:02.661Z,996.61
2022-11-29T09:54:02.649Z,996.62
2022-11-29T09:55:02.623Z,996.65
2022-11-29T09:56:02.525Z,996.62
2022-11-29T09:57:06.101Z,996.62
2022-11-29T09:58:02.318Z,996.64
2022-11-29T09:59:02.251Z,996.66
2022-11-29T10:00:02.233Z,996.63
2022-11-29T10:01:02.177Z,996.64
2022-11-29T10:02:02.150Z,996.66
2022-11-29T10:03:01.991Z,996.66
2022-11-29T10:04:01.932Z,996.66
2022-11-29T10:05:01.899Z,996.66
2022-11-29T10:06:01.906Z,996.64
2022-11-29T10:07:01.750Z,996.67
2022-11-29T10:08:01.706Z,996.68
2022-11-29T10:09:01.647Z,996.69
2022-11-29T10:10:01.522Z,996.65
2022-11-29T10:11:01.487Z,996.65
2022-11-29T10:12:02.625Z,996.66
2022-11-29T10:13:01.352Z,996.65
2022-11-29T10:14:01.323Z,996.72
2022-11-29T10:15:01.227Z,996.67
2022-11-29T10:16:01.186Z,996.66
2022-11-29T10:17:01.286Z,996.66
2022-11-29T10:18:01.057Z,996.69
2022-11-29T10:19:01.012Z,996.63
2022-11-29T10:20:00.985Z,996.68
2022-11-29T10:21:01.075Z,996.67
2022-11-29T10:22:00.754Z,996.72
2022-11-29T10:23:00.747Z,996.70
2022-11-29T10:24:00.687Z,996.69
2022-11-29T10:25:00.589Z,996.69
2022-11-29T10:26:00.538Z,996.70
2022-11-29T10:27:00.488Z,996.69
2022-11-29T10:28:00.408Z,996.71
2022-11-29T10:29:00.370Z,996.67
2022-11-29T10:30:00.314Z,996.68
2022-11-29T10:31:00.250Z,996.66
2022-11-29T10:32:00.176Z,996.72
2022-11-29T10:33:00.116Z,996.70
2022-11-29T10:34:00.012Z,996.68
2022-11-29T10:34:59.957Z,996.71
2022-11-29T10:36:20.876Z,996.73
2022-11-29T10:36:59.847Z,996.73
2022-11-29T10:38:29.208Z,996.76
2022-11-29T10:38:59.802Z,996.73
2022-11-29T10:39:59.680Z,996.77
2022-11-29T10:40:59.570Z,996.75
2022-11-29T10:41:59.552Z,996.76
2022-11-29T10:42:59.416Z,996.74
2022-11-29T10:43:59.441Z,996.75
2022-11-29T10:44:59.312Z,996.78
2022-11-29T10:45:59.348Z,996.76
2022-11-29T10:46:59.165Z,996.84
2022-11-29T10:47:59.145Z,996.80
2022-11-29T10:48:59.056Z,996.83
2022-11-29T10:49:58.981Z,996.80
2022-11-29T10:50:58.965Z,996.84
2022-11-29T10:51:58.884Z,996.83
2022-11-29T10:53:00.256Z,996.75
2022-11-29T10:53:58.847Z,996.80
2022-11-29T10:54:59.714Z,996.80
2022-11-29T10:55:58.634Z,996.80
2022-11-29T10:56:58.571Z,996.73
2022-11-29T10:57:58.496Z,996.78
2022-11-29T10:58:58.452Z,996.79
2022-11-29T10:59:58.640Z,996.77
2022-11-29T11:00:58.479Z,996.76
2022-11-29T11:01:58.252Z,996.76
2022-11-29T11:02:58.214Z,996.74
2022-11-29T11:03:58.071Z,996.73
2022-11-29T11:04:58.007Z,996.76
2022-11-29T11:05:58.031Z,996.74
2022-11-29T11:06:57.888Z,996.73
2022-11-29T11:07:57.980Z,996.78
2022-11-29T11:08:57.763Z,996.75
2022-11-29T11:09:57.722Z,996.72
2022-11-29T11:11:01.694Z,996.72
2022-11-29T11:13:36.521Z,996.75
2022-11-29T11:14:37.454Z,996.75
2022-11-29T11:15:37.354Z,996.76
2022-11-29T11:16:37.921Z,996.75
2022-11-29T11:17:37.220Z,996.77
2022-11-29T11:18:37.163Z,996.79
2022-11-29T11:19:37.072Z,996.79
2022-11-29T11:20:37.173Z,996.84
2022-11-29T11:21:36.975Z,996.81
2022-11-29T11:22:36.905Z,996.82
2022-11-29T11:23:41.383Z,996.83
2022-11-29T11:24:36.956Z,996.87
2022-11-29T11:25:36.712Z,996.85
2022-11-29T11:26:36.659Z,996.84
2022-11-29T11:27:36.601Z,996.86
2022-11-29T11:28:36.548Z,996.90
2022-11-29T11:29:36.460Z,996.91
2022-11-29T11:30:36.482Z,996.87
2022-11-29T11:31:36.362Z,996.89
2022-11-29T11:32:36.297Z,996.90
2022-11-29T11:33:36.181Z,996.90
2022-11-29T11:34:36.154Z,996.87
2022-11-29T11:35:36.100Z,996.91
2022-11-29T11:36:36.040Z,996.94
2022-11-29T11:37:35.936Z,996.95
2022-11-29T11:38:35.923Z,996.91
2022-11-29T11:39:35.853Z,996.94
2022-11-29T11:40:35.854Z,996.94
2022-11-29T11:41:35.688Z,996.96
2022-11-29T11:42:35.632Z,996.94
2022-11-29T11:43:35.585Z,996.96
2022-11-29T11:44:51.221Z,996.98
2022-11-29T11:45:35.448Z,996.99
2022-11-29T11:46:36.021Z,997.01
2022-11-29T11:47:35.351Z,997.01
2022-11-29T11:48:35.269Z,996.99
2022-11-29T11:49:35.212Z,997.01
2022-11-29T11:50:35.126Z,997.05
2022-11-29T11:51:35.056Z,997.02
2022-11-29T11:52:39.768Z,997.05
2022-11-29T11:53:34.962Z,997.05
2022-11-29T11:54:34.861Z,997.06
2022-11-29T11:55:34.832Z,997.07
2022-11-29T11:56:34.736Z,997.09
2022-11-29T11:57:34.704Z,997.09
2022-11-29T11:58:34.610Z,997.06
2022-11-29T11:59:34.589Z,997.04
2022-11-29T12:01:01.918Z,997.10
2022-11-29T12:01:34.427Z,997.09
2022-11-29T12:02:34.476Z,997.05
2022-11-29T12:03:34.338Z,997.05
2022-11-29T12:04:34.223Z,997.08
2022-11-29T12:06:03.761Z,997.12
2022-11-29T12:06:34.125Z,997.11
2022-11-29T12:08:06.178Z,997.12
2022-11-29T12:08:34.303Z,997.12
2022-11-29T12:09:33.912Z,997.15
2022-11-29T12:10:33.867Z,997.11
2022-11-29T12:11:33.796Z,997.15
2022-11-29T12:12:33.719Z,997.13
2022-11-29T12:13:33.662Z,997.11
2022-11-29T12:14:33.587Z,997.16
2022-11-29T12:15:33.597Z,997.14
2022-11-29T12:16:33.463Z,997.18
2022-11-29T12:17:33.586Z,997.19
2022-11-29T12:18:33.334Z,997.18
2022-11-29T12:19:33.245Z,997.19
2022-11-29T12:20:33.236Z,997.24
2022-11-29T12:21:33.166Z,997.17
2022-11-29T12:22:33.102Z,997.21
2022-11-29T12:23:33.035Z,997.23
2022-11-29T12:24:32.945Z,997.24
2022-11-29T12:25:32.855Z,997.26
2022-11-29T12:26:56.399Z,997.24
2022-11-29T12:27:32.786Z,997.24
2022-11-29T12:28:32.716Z,997.27
2022-11-29T12:29:32.650Z,997.27
2022-11-29T12:30:32.588Z,997.23
2022-11-29T12:31:32.536Z,997.25
2022-11-29T12:32:32.409Z,997.26
2022-11-29T12:33:32.342Z,997.30
2022-11-29T12:34:32.284Z,997.29
2022-11-29T12:35:32.264Z,997.31
2022-11-29T12:36:32.187Z,997.32
2022-11-29T12:37:32.112Z,997.29
2022-11-29T12:38:32.078Z,997.32
2022-11-29T12:39:32.010Z,997.31
2022-11-29T12:40:31.946Z,997.27
2022-11-29T12:41:31.880Z,997.29
2022-11-29T12:42:31.801Z,997.30
2022-11-29T12:43:31.736Z,997.34
2022-11-29T12:44:31.663Z,997.29
2022-11-29T12:45:31.628Z,997.33
2022-11-29T12:46:31.620Z,997.35
2022-11-29T12:47:36.065Z,997.32
2022-11-29T12:48:31.447Z,997.31
2022-11-29T12:49:31.320Z,997.35
2022-11-29T12:50:31.281Z,997.29
2022-11-29T12:51:31.221Z,997.34
2022-11-29T12:52:31.166Z,997.32